createdAt,value
2017-02-19T00:00:43.339Z,22.55
2017-02-19T00:01:43.345Z,22.51
2017-02-19T00:02:42.894Z,22.43
2017-02-19T00:03:42.914Z,22.49
2017-02-19T00:04:43.301Z,22.47
2017-02-19T00:05:43.323Z,22.49
2017-02-19T00:06:43.371Z,22.47
2017-02-19T00:07:42.926Z,22.51
2017-02-19T00:08:43.375Z,22.52
2017-02-19T00:09:43.342Z,22.45
2017-02-19T00:10:43.353Z,22.46
2017-02-19T00:11:43.246Z,22.47
2017-02-19T00:12:43.347Z,22.51
2017-02-19T00:13:43.024Z,22.45
2017-02-19T00:14:43.023Z,22.49
2017-02-19T00:15:43.369Z,22.54
2017-02-19T00:16:43.482Z,22.47
2017-02-19T00:17:43.379Z,22.52
2017-02-19T00:18:43.055Z,22.46
2017-02-19T00:19:43.405Z,22.47
2017-02-19T00:20:43.393Z,22.49
2017-02-19T00:21:43.418Z,22.54
2017-02-19T00:22:43.410Z,22.57
2017-02-19T00:23:43.517Z,22.55
2017-02-19T00:24:43.030Z,22.47
2017-02-19T00:25:43.436Z,22.61
2017-02-19T00:26:43.452Z,22.51
2017-02-19T00:27:43.753Z,22.51
2017-02-19T00:28:43.490Z,22.6
2017-02-19T00:29:43.507Z,22.58
2017-02-19T00:30:43.511Z,22.54
2017-02-19T00:31:43.485Z,22.45
2017-02-19T00:32:43.516Z,22.52
2017-02-19T00:33:43.525Z,22.55
2017-02-19T00:34:43.540Z,22.46
2017-02-19T00:35:43.482Z,22.55
2017-02-19T00:36:43.487Z,22.57
2017-02-19T00:37:43.209Z,22.55
2017-02-19T00:38:43.510Z,22.51
2017-02-19T00:39:43.266Z,22.49
2017-02-19T00:40:43.918Z,22.45
2017-02-19T00:41:43.588Z,22.47
2017-02-19T00:42:43.534Z,22.51
2017-02-19T00:43:43.535Z,22.54
2017-02-19T00:44:43.150Z,22.45
2017-02-19T00:45:43.544Z,22.49
2017-02-19T00:46:43.546Z,22.55
2017-02-19T00:47:43.562Z,22.55
2017-02-19T00:48:43.667Z,22.52
2017-02-19T00:49:43.632Z,22.52
2017-02-19T00:50:43.579Z,22.57
2017-02-19T00:51:43.582Z,22.51
2017-02-19T00:52:43.651Z,22.58
2017-02-19T00:53:43.592Z,22.62
2017-02-19T00:54:43.645Z,22.55
2017-02-19T00:55:43.609Z,22.6
2017-02-19T00:56:43.259Z,22.64
2017-02-19T00:57:43.611Z,22.47
2017-02-19T00:58:43.613Z,22.54
2017-02-19T00:59:43.673Z,22.57
2017-02-19T01:00:43.633Z,22.52
2017-02-19T01:01:43.704Z,22.58
2017-02-19T01:02:43.248Z,22.55
2017-02-19T01:03:43.654Z,22.54
2017-02-19T01:04:43.718Z,22.57
2017-02-19T01:05:43.666Z,22.55
2017-02-19T01:06:43.728Z,22.49
2017-02-19T01:07:43.668Z,22.51
2017-02-19T01:08:43.684Z,22.52
2017-02-19T01:09:43.744Z,22.45
2017-02-19T01:10:43.750Z,22.49
2017-02-19T01:11:43.695Z,22.54
2017-02-19T01:12:43.704Z,22.57
2017-02-19T01:13:43.707Z,22.6
2017-02-19T01:14:43.724Z,22.61
2017-02-19T01:15:43.336Z,22.58
2017-02-19T01:16:43.722Z,22.6
2017-02-19T01:17:43.740Z,22.49
2017-02-19T01:18:43.338Z,22.64
2017-02-19T01:19:43.750Z,22.51
2017-02-19T01:20:43.762Z,22.55
2017-02-19T01:21:43.405Z,22.51
2017-02-19T01:22:43.370Z,22.61
2017-02-19T01:23:43.768Z,22.57
2017-02-19T01:24:43.770Z,22.57
2017-02-19T01:25:43.781Z,22.51
2017-02-19T01:26:43.789Z,22.57
2017-02-19T01:27:43.845Z,22.52
2017-02-19T01:28:43.846Z,22.61
2017-02-19T01:29:43.806Z,22.6
2017-02-19T01:30:43.803Z,22.57
2017-02-19T01:31:43.861Z,22.58
2017-02-19T01:32:43.430Z,22.52
2017-02-19T01:33:43.821Z,22.54
2017-02-19T01:34:43.895Z,22.52
2017-02-19T01:35:43.437Z,22.45
2017-02-19T01:36:43.889Z,22.52
2017-02-19T01:37:43.864Z,22.55
2017-02-19T01:38:43.521Z,22.55
2017-02-19T01:39:43.975Z,22.6
2017-02-19T01:40:43.873Z,22.61
2017-02-19T01:41:43.917Z,22.51
2017-02-19T01:42:43.540Z,22.49
2017-02-19T01:43:43.882Z,22.49
2017-02-19T01:44:43.935Z,22.55
2017-02-19T01:45:43.505Z,22.52
2017-02-19T01:46:43.906Z,22.49
2017-02-19T01:47:43.911Z,22.52
2017-02-19T01:48:43.916Z,22.6
2017-02-19T01:49:43.546Z,22.6
2017-02-19T01:50:43.933Z,22.54
2017-02-19T01:51:43.209Z,22.55
2017-02-19T01:52:43.944Z,22.52
2017-02-19T01:53:44.094Z,22.62
2017-02-19T01:54:44.008Z,22.61
2017-02-19T01:55:43.981Z,22.62
2017-02-19T01:56:43.955Z,22.6
2017-02-19T01:57:43.574Z,22.6
2017-02-19T01:58:43.967Z,22.58
2017-02-19T01:59:43.594Z,22.52
2017-02-19T02:00:44.034Z,22.57
2017-02-19T02:01:44.001Z,22.61
2017-02-19T02:02:44.050Z,22.55
2017-02-19T02:03:44.059Z,22.57
2017-02-19T02:04:44.009Z,22.45
2017-02-19T02:05:44.026Z,22.45
2017-02-19T02:06:44.016Z,22.55
2017-02-19T02:07:43.631Z,22.61
2017-02-19T02:08:44.081Z,22.51
2017-02-19T02:09:44.049Z,22.57
2017-02-19T02:10:43.656Z,22.61
2017-02-19T02:11:44.106Z,22.49
2017-02-19T02:12:43.657Z,22.57
2017-02-19T02:13:44.916Z,22.62
2017-02-19T02:14:43.668Z,22.58
2017-02-19T02:15:44.081Z,22.54
2017-02-19T02:16:44.154Z,22.58
2017-02-19T02:17:44.100Z,22.6
2017-02-19T02:18:44.087Z,22.54
2017-02-19T02:19:44.089Z,22.6
2017-02-19T02:20:44.169Z,22.61
2017-02-19T02:21:43.716Z,22.49
2017-02-19T02:22:44.176Z,22.61
2017-02-19T02:23:43.738Z,22.57
2017-02-19T02:24:44.124Z,22.51
2017-02-19T02:25:44.133Z,22.51
2017-02-19T02:26:44.131Z,22.47
2017-02-19T02:27:44.200Z,22.55
2017-02-19T02:28:43.757Z,22.51
2017-02-19T02:29:44.149Z,22.46
2017-02-19T02:30:44.268Z,22.61
2017-02-19T02:31:44.223Z,22.58
2017-02-19T02:32:44.180Z,22.55
2017-02-19T02:33:44.226Z,22.52
2017-02-19T02:34:44.180Z,22.57
2017-02-19T02:35:44.233Z,22.45
2017-02-19T02:36:44.191Z,22.52
2017-02-19T02:37:44.210Z,22.45
2017-02-19T02:38:44.253Z,22.49
2017-02-19T02:39:44.260Z,22.49
2017-02-19T02:40:44.227Z,22.52
2017-02-19T02:41:44.272Z,22.55
2017-02-19T02:42:44.237Z,22.55
2017-02-19T02:43:43.891Z,22.46
2017-02-19T02:44:44.239Z,22.46
2017-02-19T02:45:43.954Z,22.47
2017-02-19T02:46:44.259Z,22.54
2017-02-19T02:47:44.266Z,22.57
2017-02-19T02:48:44.269Z,22.47
2017-02-19T02:49:44.265Z,22.52
2017-02-19T02:50:44.273Z,22.55
2017-02-19T02:51:44.327Z,22.57
2017-02-19T02:52:44.345Z,22.57
2017-02-19T02:53:44.298Z,22.57
2017-02-19T02:54:43.565Z,22.55
2017-02-19T02:55:44.303Z,22.57
2017-02-19T02:56:44.309Z,22.52
2017-02-19T02:57:44.360Z,22.54
2017-02-19T02:58:43.936Z,22.51
2017-02-19T02:59:44.356Z,22.52
2017-02-19T03:00:44.006Z,22.52
2017-02-19T03:01:44.008Z,22.49
2017-02-19T03:02:44.343Z,22.54
2017-02-19T03:03:44.352Z,22.52
2017-02-19T03:04:44.415Z,22.54
2017-02-19T03:05:44.030Z,22.52
2017-02-19T03:06:44.387Z,22.62
2017-02-19T03:07:44.376Z,22.49
2017-02-19T03:08:43.984Z,22.47
2017-02-19T03:09:44.444Z,22.54
2017-02-19T03:10:44.391Z,22.61
2017-02-19T03:11:44.406Z,22.52
2017-02-19T03:12:44.004Z,22.54
2017-02-19T03:13:43.774Z,22.62
2017-02-19T03:14:44.428Z,22.58
2017-02-19T03:15:44.440Z,22.61
2017-02-19T03:16:44.534Z,22.58
2017-02-19T03:17:44.439Z,22.6
2017-02-19T03:18:44.444Z,22.55
2017-02-19T03:19:44.504Z,22.57
2017-02-19T03:20:44.464Z,22.62
2017-02-19T03:21:44.181Z,22.62
2017-02-19T03:22:44.133Z,22.55
2017-02-19T03:23:44.521Z,22.55
2017-02-19T03:24:44.475Z,22.46
2017-02-19T03:25:44.096Z,22.61
2017-02-19T03:26:44.486Z,22.54
2017-02-19T03:27:44.538Z,22.51
2017-02-19T03:28:44.115Z,22.45
2017-02-19T03:29:44.512Z,22.45
2017-02-19T03:30:44.557Z,22.47
2017-02-19T03:31:44.589Z,22.62
2017-02-19T03:32:44.620Z,22.58
2017-02-19T03:33:44.525Z,22.64
2017-02-19T03:34:44.548Z,22.58
2017-02-19T03:35:44.550Z,22.58
2017-02-19T03:36:44.646Z,22.57
2017-02-19T03:37:44.554Z,22.6
2017-02-19T03:38:44.574Z,22.57
2017-02-19T03:39:45.713Z,22.58
2017-02-19T03:40:44.235Z,22.57
2017-02-19T03:41:44.591Z,22.6
2017-02-19T03:42:44.630Z,22.61
2017-02-19T03:43:44.590Z,22.51
2017-02-19T03:44:44.199Z,22.6
2017-02-19T03:45:44.603Z,22.55
2017-02-19T03:46:44.902Z,22.58
2017-02-19T03:47:44.610Z,22.62
2017-02-19T03:48:44.678Z,22.64
2017-02-19T03:49:44.620Z,22.65
2017-02-19T03:50:44.244Z,22.72
2017-02-19T03:51:44.641Z,22.61
2017-02-19T03:52:44.639Z,22.68
2017-02-19T03:53:44.648Z,22.67
2017-02-19T03:54:44.701Z,22.65
2017-02-19T03:55:44.716Z,22.76
2017-02-19T03:56:44.711Z,22.77
2017-02-19T03:57:44.681Z,22.75
2017-02-19T03:58:44.690Z,22.79
2017-02-19T03:59:44.400Z,22.83
2017-02-19T04:00:44.693Z,22.82
2017-02-19T04:01:44.299Z,22.79
2017-02-19T04:02:44.752Z,22.8
2017-02-19T04:03:44.307Z,22.83
2017-02-19T04:04:44.415Z,22.8
2017-02-19T04:05:44.773Z,22.65
2017-02-19T04:06:44.730Z,22.76
2017-02-19T04:07:44.731Z,22.75
2017-02-19T04:08:44.391Z,22.68
2017-02-19T04:09:44.760Z,22.72
2017-02-19T04:10:44.756Z,22.68
2017-02-19T04:11:44.406Z,22.67
2017-02-19T04:12:44.765Z,22.73
2017-02-19T04:13:59.244Z,22.57
2017-02-19T04:14:44.991Z,22.64
2017-02-19T04:15:44.492Z,22.61
2017-02-19T04:16:44.837Z,22.61
2017-02-19T04:17:44.478Z,22.51
2017-02-19T04:18:44.795Z,22.6
2017-02-19T04:19:44.517Z,22.57
2017-02-19T04:20:44.423Z,22.47
2017-02-19T04:21:44.464Z,22.57
2017-02-19T04:22:44.816Z,22.61
2017-02-19T04:23:44.429Z,22.54
2017-02-19T04:24:44.827Z,22.6
2017-02-19T04:25:44.850Z,22.52
2017-02-19T04:26:44.932Z,22.45
2017-02-19T04:27:44.848Z,22.54
2017-02-19T04:28:44.907Z,22.57
2017-02-19T04:29:44.856Z,22.55
2017-02-19T04:30:44.482Z,22.54
2017-02-19T04:31:44.935Z,22.6
2017-02-19T04:32:44.531Z,22.51
2017-02-19T04:33:44.484Z,22.57
2017-02-19T04:34:44.539Z,22.52
2017-02-19T04:35:44.894Z,22.58
2017-02-19T04:36:44.898Z,22.58
2017-02-19T04:37:44.506Z,22.49
2017-02-19T04:38:44.612Z,22.58
2017-02-19T04:39:44.521Z,22.57
2017-02-19T04:40:44.969Z,22.49
2017-02-19T04:41:44.540Z,22.52
2017-02-19T04:42:44.938Z,22.49
2017-02-19T04:43:44.599Z,22.47
2017-02-19T04:44:44.950Z,22.54
2017-02-19T04:45:44.160Z,22.6
2017-02-19T04:46:44.625Z,22.51
2017-02-19T04:47:44.568Z,22.52
2017-02-19T04:48:44.584Z,22.61
2017-02-19T04:49:44.626Z,22.51
2017-02-19T04:50:45.004Z,22.51
2017-02-19T04:51:44.652Z,22.58
2017-02-19T04:52:45.042Z,22.47
2017-02-19T04:53:45.004Z,22.6
2017-02-19T04:54:44.606Z,22.52
2017-02-19T04:55:45.029Z,22.45
2017-02-19T04:56:44.640Z,22.47
2017-02-19T04:57:44.635Z,22.52
2017-02-19T04:58:44.668Z,22.42
2017-02-19T04:59:44.641Z,22.45
2017-02-19T05:00:45.042Z,22.49
2017-02-19T05:01:45.096Z,22.46
2017-02-19T05:02:44.262Z,22.54
2017-02-19T05:03:44.702Z,22.6
2017-02-19T05:04:45.066Z,22.52
2017-02-19T05:05:44.722Z,22.51
2017-02-19T05:06:44.678Z,22.47
2017-02-19T05:07:44.685Z,22.6
2017-02-19T05:08:45.083Z,22.55
2017-02-19T05:09:45.090Z,22.47
2017-02-19T05:10:45.150Z,22.49
2017-02-19T05:11:44.767Z,22.54
2017-02-19T05:12:45.174Z,22.57
2017-02-19T05:13:45.169Z,22.57
2017-02-19T05:14:45.190Z,22.52
2017-02-19T05:15:45.139Z,22.57
2017-02-19T05:16:45.187Z,22.51
2017-02-19T05:17:44.790Z,22.46
2017-02-19T05:18:45.148Z,22.45
2017-02-19T05:19:45.205Z,22.51
2017-02-19T05:20:44.760Z,22.54
2017-02-19T05:21:45.461Z,22.43
2017-02-19T05:22:45.267Z,22.43
2017-02-19T05:23:44.778Z,22.47
2017-02-19T05:24:45.195Z,22.49
2017-02-19T05:25:45.249Z,22.51
2017-02-19T05:26:45.192Z,22.4
2017-02-19T05:27:45.205Z,22.27
2017-02-19T05:28:44.908Z,22.36
2017-02-19T05:29:45.212Z,22.4
2017-02-19T05:30:45.282Z,22.45
2017-02-19T05:31:45.270Z,22.4
2017-02-19T05:32:44.922Z,22.46
2017-02-19T05:33:45.242Z,22.39
2017-02-19T05:34:45.245Z,22.37
2017-02-19T05:35:45.252Z,22.43
2017-02-19T05:36:45.263Z,22.27
2017-02-19T05:37:45.307Z,22.42
2017-02-19T05:38:45.324Z,22.46
2017-02-19T05:39:45.673Z,22.47
2017-02-19T05:40:44.876Z,22.47
2017-02-19T05:41:45.330Z,22.4
2017-02-19T05:42:45.332Z,22.52
2017-02-19T05:43:45.350Z,22.46
2017-02-19T05:44:44.552Z,22.47
2017-02-19T05:45:45.378Z,22.4
2017-02-19T05:46:44.961Z,22.42
2017-02-19T05:47:45.362Z,22.46
2017-02-19T05:48:44.925Z,22.4
2017-02-19T05:49:45.323Z,22.42
2017-02-19T05:50:45.383Z,22.43
2017-02-19T05:51:45.387Z,22.4
2017-02-19T05:52:44.994Z,22.45
2017-02-19T05:53:44.972Z,22.45
2017-02-19T05:54:45.419Z,22.37
2017-02-19T05:55:45.418Z,22.43
2017-02-19T05:56:45.416Z,22.42
2017-02-19T05:57:45.381Z,22.39
2017-02-19T05:58:45.479Z,22.43
2017-02-19T05:59:45.444Z,22.46
2017-02-19T06:00:44.991Z,22.43
2017-02-19T06:01:45.394Z,22.45
2017-02-19T06:02:45.410Z,22.4
2017-02-19T06:03:45.406Z,22.42
2017-02-19T06:04:45.415Z,22.46
2017-02-19T06:05:45.525Z,22.33
2017-02-19T06:06:45.079Z,22.4
2017-02-19T06:07:45.036Z,22.36
2017-02-19T06:08:45.039Z,22.42
2017-02-19T06:09:45.499Z,22.37
2017-02-19T06:10:45.058Z,22.43
2017-02-19T06:11:45.450Z,22.45
2017-02-19T06:12:45.464Z,22.42
2017-02-19T06:13:45.516Z,22.33
2017-02-19T06:14:45.517Z,22.43
2017-02-19T06:15:45.487Z,22.42
2017-02-19T06:16:45.537Z,22.36
2017-02-19T06:17:45.558Z,22.39
2017-02-19T06:18:45.104Z,22.37
2017-02-19T06:19:45.498Z,22.45
2017-02-19T06:20:45.506Z,22.37
2017-02-19T06:21:45.220Z,22.27
2017-02-19T06:22:45.519Z,22.39
2017-02-19T06:23:45.140Z,22.43
2017-02-19T06:24:45.526Z,22.42
2017-02-19T06:25:45.583Z,22.39
2017-02-19T06:26:45.599Z,22.39
2017-02-19T06:27:45.596Z,22.46
2017-02-19T06:28:45.554Z,22.4
2017-02-19T06:29:45.558Z,22.45
2017-02-19T06:30:45.560Z,22.4
2017-02-19T06:31:45.581Z,22.39
2017-02-19T06:32:45.576Z,22.39
2017-02-19T06:33:45.583Z,22.42
2017-02-19T06:34:45.591Z,22.46
2017-02-19T06:35:45.650Z,22.4
2017-02-19T06:36:45.605Z,22.39
2017-02-19T06:37:45.607Z,22.4
2017-02-19T06:38:45.617Z,22.37
2017-02-19T06:39:45.670Z,22.45
2017-02-19T06:40:45.635Z,22.52
2017-02-19T06:41:45.692Z,22.46
2017-02-19T06:42:45.241Z,22.49
2017-02-19T06:43:45.692Z,22.45
2017-02-19T06:44:45.708Z,22.42
2017-02-19T06:45:45.650Z,22.47
2017-02-19T06:46:45.709Z,22.36
2017-02-19T06:47:45.666Z,22.45
2017-02-19T06:48:45.723Z,22.51
2017-02-19T06:49:45.732Z,22.49
2017-02-19T06:50:45.386Z,22.54
2017-02-19T06:51:45.735Z,22.51
2017-02-19T06:52:45.703Z,22.51
2017-02-19T06:53:45.720Z,22.55
2017-02-19T06:54:45.762Z,22.47
2017-02-19T06:55:45.723Z,22.51
2017-02-19T06:56:45.716Z,22.49
2017-02-19T06:57:45.723Z,22.51
2017-02-19T06:58:45.333Z,22.52
2017-02-19T06:59:46.082Z,22.54
2017-02-19T07:00:45.754Z,22.39
2017-02-19T07:01:45.802Z,22.49
2017-02-19T07:02:45.746Z,22.39
2017-02-19T07:03:45.357Z,22.46
2017-02-19T07:04:45.762Z,22.45
2017-02-19T07:05:45.421Z,22.42
2017-02-19T07:06:45.784Z,22.45
2017-02-19T07:07:45.385Z,22.47
2017-02-19T07:08:45.795Z,22.47
2017-02-19T07:09:45.942Z,22.36
2017-02-19T07:10:45.449Z,22.43
2017-02-19T07:11:45.407Z,22.46
2017-02-19T07:12:45.424Z,22.37
2017-02-19T07:13:45.481Z,22.46
2017-02-19T07:14:45.490Z,22.42
2017-02-19T07:15:45.835Z,22.46
2017-02-19T07:16:45.741Z,22.46
2017-02-19T07:17:45.891Z,22.55
2017-02-19T07:18:45.842Z,22.47
2017-02-19T07:19:45.860Z,22.46
2017-02-19T07:20:45.475Z,22.47
2017-02-19T07:21:45.880Z,22.49
2017-02-19T07:22:45.526Z,22.54
2017-02-19T07:23:45.479Z,22.47
2017-02-19T07:24:45.927Z,22.39
2017-02-19T07:25:45.888Z,22.4
2017-02-19T07:26:45.943Z,22.42
2017-02-19T07:27:45.908Z,22.45
2017-02-19T07:28:45.907Z,22.45
2017-02-19T07:29:46.201Z,22.49
2017-02-19T07:30:45.926Z,22.51
2017-02-19T07:31:46.037Z,22.52
2017-02-19T07:32:45.542Z,22.6
2017-02-19T07:33:45.942Z,22.54
2017-02-19T07:34:45.939Z,22.52
2017-02-19T07:35:45.958Z,22.52
2017-02-19T07:36:45.575Z,22.51
2017-02-19T07:37:45.956Z,22.49
2017-02-19T07:38:45.962Z,22.49
2017-02-19T07:39:45.580Z,22.52
2017-02-19T07:40:46.005Z,22.62
2017-02-19T07:41:45.980Z,22.51
2017-02-19T07:42:45.986Z,22.55
2017-02-19T07:43:46.039Z,22.57
2017-02-19T07:44:45.996Z,22.61
2017-02-19T07:45:46.008Z,22.55
2017-02-19T07:46:45.910Z,22.64
2017-02-19T07:47:46.016Z,22.68
2017-02-19T07:48:46.088Z,22.68
2017-02-19T07:49:46.051Z,22.72
2017-02-19T07:50:46.080Z,22.77
2017-02-19T07:51:46.039Z,22.82
2017-02-19T07:52:46.096Z,22.77
2017-02-19T07:53:46.056Z,22.82
2017-02-19T07:54:45.661Z,22.83
2017-02-19T07:55:45.661Z,22.83
2017-02-19T07:56:46.077Z,22.86
2017-02-19T07:57:46.024Z,22.77
2017-02-19T07:58:46.185Z,22.88
2017-02-19T07:59:45.757Z,22.9
2017-02-19T08:00:46.143Z,22.86
2017-02-19T08:01:45.709Z,22.9
2017-02-19T08:02:45.767Z,22.92
2017-02-19T08:03:46.110Z,22.86
2017-02-19T08:04:46.171Z,22.8
2017-02-19T08:05:46.178Z,22.83
2017-02-19T08:06:46.134Z,22.86
2017-02-19T08:07:45.749Z,22.9
2017-02-19T08:08:46.143Z,22.85
2017-02-19T08:09:46.145Z,22.94
2017-02-19T08:10:46.153Z,22.8
2017-02-19T08:11:45.814Z,22.82
2017-02-19T08:12:46.163Z,22.76
2017-02-19T08:13:46.226Z,22.8
2017-02-19T08:14:46.177Z,22.76
2017-02-19T08:15:46.182Z,22.76
2017-02-19T08:16:46.344Z,22.62
2017-02-19T08:17:46.209Z,22.7
2017-02-19T08:18:46.304Z,22.72
2017-02-19T08:19:46.282Z,22.72
2017-02-19T08:20:46.228Z,22.58
2017-02-19T08:21:46.224Z,22.58
2017-02-19T08:22:46.532Z,22.54
2017-02-19T08:23:46.248Z,22.46
2017-02-19T08:24:46.298Z,22.46
2017-02-19T08:25:46.299Z,22.37
2017-02-19T08:26:45.868Z,22.37
2017-02-19T08:27:46.287Z,22.28
2017-02-19T08:28:46.270Z,22.37
2017-02-19T08:29:45.877Z,22.36
2017-02-19T08:30:45.931Z,22.39
2017-02-19T08:31:46.289Z,22.42
2017-02-19T08:32:46.360Z,22.46
2017-02-19T08:33:45.949Z,22.28
2017-02-19T08:34:45.915Z,22.3
2017-02-19T08:35:45.914Z,22.24
2017-02-19T08:36:46.373Z,22.3
2017-02-19T08:37:46.326Z,22.28
2017-02-19T08:38:46.426Z,22.33
2017-02-19T08:39:46.398Z,22.25
2017-02-19T08:40:45.948Z,22.22
2017-02-19T08:41:45.952Z,22.28
2017-02-19T08:42:45.973Z,22.27
2017-02-19T08:43:45.964Z,22.28
2017-02-19T08:44:46.420Z,22.25
2017-02-19T08:45:46.442Z,22.24
2017-02-19T08:46:46.368Z,22.25
2017-02-19T08:47:46.435Z,22.35
2017-02-19T08:48:46.441Z,22.28
2017-02-19T08:49:46.402Z,22.25
2017-02-19T08:50:46.450Z,22.28
2017-02-19T08:51:46.409Z,22.24
2017-02-19T08:52:46.468Z,22.28
2017-02-19T08:53:46.416Z,22.31
2017-02-19T08:54:46.418Z,22.2
2017-02-19T08:55:46.478Z,22.2
2017-02-19T08:56:46.429Z,22.14
2017-02-19T08:57:46.541Z,22.17
2017-02-19T08:58:46.505Z,22.18
2017-02-19T08:59:46.061Z,22.17
2017-02-19T09:00:46.523Z,22.18
2017-02-19T09:01:46.478Z,22.15
2017-02-19T09:02:46.372Z,22.17
2017-02-19T09:03:46.517Z,22.2
2017-02-19T09:04:46.535Z,22.25
2017-02-19T09:05:45.691Z,22.2
2017-02-19T09:06:46.495Z,22.18
2017-02-19T09:07:46.501Z,22.28
2017-02-19T09:08:46.515Z,22.22
2017-02-19T09:09:46.110Z,22.25
2017-02-19T09:10:46.510Z,22.24
2017-02-19T09:11:46.526Z,22.28
2017-02-19T09:12:46.180Z,22.4
2017-02-19T09:13:46.589Z,22.36
2017-02-19T09:14:46.190Z,22.31
2017-02-19T09:15:46.555Z,22.28
2017-02-19T09:16:46.158Z,22.28
2017-02-19T09:17:46.552Z,22.21
2017-02-19T09:18:46.162Z,22.22
2017-02-19T09:19:46.566Z,22.25
2017-02-19T09:20:46.588Z,22.2
2017-02-19T09:21:46.645Z,22.12
2017-02-19T09:22:46.586Z,22.18
2017-02-19T09:23:46.649Z,22.14
2017-02-19T09:24:46.594Z,22.03
2017-02-19T09:25:46.602Z,22.18
2017-02-19T09:26:46.262Z,22.14
2017-02-19T09:27:46.259Z,22.03
2017-02-19T09:28:46.642Z,22.06
2017-02-19T09:29:45.882Z,22.06
2017-02-19T09:30:46.282Z,22.06
2017-02-19T09:31:46.638Z,22.06
2017-02-19T09:32:46.753Z,22.07
2017-02-19T09:33:46.654Z,22.09
2017-02-19T09:34:46.316Z,22.02
2017-02-19T09:35:46.667Z,21.99
2017-02-19T09:36:46.277Z,22.12
2017-02-19T09:37:46.770Z,22.1
2017-02-19T09:38:46.679Z,22.07
2017-02-19T09:39:46.741Z,22.07
2017-02-19T09:40:46.703Z,22.1
2017-02-19T09:41:46.745Z,22.09
2017-02-19T09:42:46.760Z,22.03
2017-02-19T09:43:46.766Z,22.07
2017-02-19T09:44:46.369Z,22.12
2017-02-19T09:45:46.727Z,22.06
2017-02-19T09:46:46.721Z,22.07
2017-02-19T09:47:46.848Z,22.05
2017-02-19T09:48:46.742Z,22.02
2017-02-19T09:49:46.749Z,22
2017-02-19T09:50:46.796Z,22.07
2017-02-19T09:51:46.810Z,22.06
2017-02-19T09:52:46.361Z,22.03
2017-02-19T09:53:46.814Z,22.14
2017-02-19T09:54:46.770Z,22
2017-02-19T09:55:46.778Z,22.1
2017-02-19T09:56:46.825Z,22.05
2017-02-19T09:57:46.793Z,22.07
2017-02-19T09:58:46.843Z,22.09
2017-02-19T09:59:46.853Z,22.05
2017-02-19T10:00:46.820Z,22.02
2017-02-19T10:01:46.478Z,22.15
2017-02-19T10:02:46.829Z,22.02
2017-02-19T10:03:46.822Z,22.09
2017-02-19T10:04:46.984Z,21.99
2017-02-19T10:05:46.833Z,22.03
2017-02-19T10:06:46.844Z,22.02
2017-02-19T10:07:46.898Z,22
2017-02-19T10:08:46.855Z,22
2017-02-19T10:09:46.871Z,22
2017-02-19T10:10:46.518Z,22.05
2017-02-19T10:11:46.873Z,22.14
2017-02-19T10:12:46.934Z,22.02
2017-02-19T10:13:47.043Z,22.09
2017-02-19T10:14:46.945Z,21.91
2017-02-19T10:15:46.892Z,21.96
2017-02-19T10:16:46.944Z,22.03
2017-02-19T10:17:46.957Z,22.02
2017-02-19T10:18:47.067Z,22.07
2017-02-19T10:19:47.016Z,22.14
2017-02-19T10:20:46.921Z,22.06
2017-02-19T10:21:46.934Z,22.09
2017-02-19T10:22:46.995Z,22.09
2017-02-19T10:23:46.145Z,22.06
2017-02-19T10:24:47.008Z,22.12
2017-02-19T10:25:46.960Z,22.02
2017-02-19T10:26:46.622Z,22.05
2017-02-19T10:27:46.963Z,22.06
2017-02-19T10:28:46.967Z,22.1
2017-02-19T10:29:46.979Z,22.06
2017-02-19T10:30:46.586Z,22.1
2017-02-19T10:31:46.990Z,22.09
2017-02-19T10:32:46.996Z,22.07
2017-02-19T10:33:47.109Z,22.1
2017-02-19T10:34:46.711Z,22.07
2017-02-19T10:35:47.011Z,22.09
2017-02-19T10:36:46.248Z,22.05
2017-02-19T10:37:47.026Z,21.98
2017-02-19T10:38:47.027Z,22.07
2017-02-19T10:39:47.089Z,22.05
2017-02-19T10:40:47.043Z,22.09
2017-02-19T10:41:47.160Z,22.05
2017-02-19T10:42:47.055Z,22.02
2017-02-19T10:44:01.535Z,22.06
2017-02-19T10:44:47.070Z,22.03
2017-02-19T10:45:47.081Z,21.99
2017-02-19T10:46:47.132Z,22.02
2017-02-19T10:47:47.140Z,21.99
2017-02-19T10:48:46.739Z,22.15
2017-02-19T10:49:47.097Z,22.05
2017-02-19T10:50:46.760Z,22.02
2017-02-19T10:51:46.315Z,21.91
2017-02-19T10:52:47.184Z,21.92
2017-02-19T10:53:47.186Z,21.94
2017-02-19T10:54:47.176Z,21.91
2017-02-19T10:55:46.787Z,21.9
2017-02-19T10:56:47.187Z,21.88
2017-02-19T10:57:47.191Z,21.84
2017-02-19T10:58:47.210Z,21.88
2017-02-19T10:59:46.807Z,21.86
2017-02-19T11:00:47.165Z,21.88
2017-02-19T11:01:46.768Z,21.88
2017-02-19T11:02:47.236Z,21.8
2017-02-19T11:03:47.191Z,21.9
2017-02-19T11:04:46.794Z,21.86
2017-02-19T11:05:47.242Z,21.83
2017-02-19T11:06:46.809Z,21.83
2017-02-19T11:07:47.215Z,21.8
2017-02-19T11:08:47.221Z,21.84
2017-02-19T11:09:47.224Z,21.8
2017-02-19T11:10:47.220Z,21.79
2017-02-19T11:11:47.238Z,21.82
2017-02-19T11:12:47.277Z,21.84
2017-02-19T11:13:46.905Z,21.9
2017-02-19T11:14:47.242Z,21.75
2017-02-19T11:15:47.347Z,21.86
2017-02-19T11:16:47.253Z,21.82
2017-02-19T11:17:47.269Z,21.74
2017-02-19T11:18:47.268Z,21.9
2017-02-19T11:19:47.275Z,21.86
2017-02-19T11:20:47.376Z,21.82
2017-02-19T11:21:47.291Z,21.8
2017-02-19T11:22:47.294Z,21.79
2017-02-19T11:23:47.301Z,21.8
2017-02-19T11:24:46.906Z,21.79
2017-02-19T11:25:47.122Z,21.88
2017-02-19T11:26:47.326Z,21.86
2017-02-19T11:27:46.941Z,21.84
2017-02-19T11:28:46.988Z,21.75
2017-02-19T11:29:47.339Z,21.8
2017-02-19T11:30:47.339Z,21.84
2017-02-19T11:31:47.001Z,21.86
2017-02-19T11:32:47.460Z,21.77
2017-02-19T11:33:47.357Z,21.8
2017-02-19T11:34:47.360Z,21.82
2017-02-19T11:35:47.412Z,21.79
2017-02-19T11:36:47.373Z,21.8
2017-02-19T11:37:48.033Z,21.75
2017-02-19T11:38:47.449Z,21.8
2017-02-19T11:39:46.591Z,21.79
2017-02-19T11:40:47.202Z,21.75
2017-02-19T11:41:47.398Z,21.83
2017-02-19T11:42:47.454Z,21.82
2017-02-19T11:43:47.407Z,21.84
2017-02-19T11:44:47.068Z,21.83
2017-02-19T11:45:47.471Z,21.75
2017-02-19T11:46:47.481Z,21.83
2017-02-19T11:47:47.451Z,21.84
2017-02-19T11:48:47.446Z,21.86
2017-02-19T11:49:47.096Z,21.88
2017-02-19T11:50:47.450Z,21.8
2017-02-19T11:51:46.674Z,21.9
2017-02-19T11:52:47.458Z,21.9
2017-02-19T11:53:47.379Z,21.83
2017-02-19T11:54:47.571Z,21.86
2017-02-19T11:55:47.131Z,21.88
2017-02-19T11:56:47.491Z,21.86
2017-02-19T11:57:47.144Z,21.9
2017-02-19T11:58:47.103Z,21.83
2017-02-19T11:59:47.498Z,21.91
2017-02-19T12:00:47.570Z,21.9
2017-02-19T12:01:47.585Z,21.9
2017-02-19T12:02:47.443Z,21.86
2017-02-19T12:03:47.540Z,21.86
2017-02-19T12:04:47.526Z,21.83
2017-02-19T12:05:47.533Z,21.77
2017-02-19T12:06:47.143Z,21.88
2017-02-19T12:07:47.553Z,21.86
2017-02-19T12:08:47.562Z,21.88
2017-02-19T12:09:47.610Z,21.94
2017-02-19T12:10:47.218Z,21.94
2017-02-19T12:11:47.221Z,21.91
2017-02-19T12:12:47.590Z,21.9
2017-02-19T12:14:02.059Z,21.9
2017-02-19T12:14:47.590Z,21.91
2017-02-19T12:15:46.813Z,21.96
2017-02-19T12:16:47.611Z,21.94
2017-02-19T12:17:47.714Z,21.96
2017-02-19T12:18:47.225Z,21.96
2017-02-19T12:19:47.624Z,21.91
2017-02-19T12:20:47.232Z,21.91
2017-02-19T12:21:47.710Z,21.84
2017-02-19T12:22:47.286Z,21.88
2017-02-19T12:23:47.740Z,21.92
2017-02-19T12:24:47.705Z,21.84
2017-02-19T12:25:47.649Z,21.82
2017-02-19T12:26:47.260Z,21.91
2017-02-19T12:27:47.717Z,21.92
2017-02-19T12:28:47.684Z,21.9
2017-02-19T12:29:47.679Z,21.9
2017-02-19T12:30:47.679Z,21.83
2017-02-19T12:31:47.744Z,21.86
2017-02-19T12:32:47.714Z,21.82
2017-02-19T12:33:47.304Z,21.9
2017-02-19T12:34:47.721Z,21.8
2017-02-19T12:35:47.468Z,21.86
2017-02-19T12:36:47.365Z,21.86
2017-02-19T12:37:47.795Z,21.88
2017-02-19T12:38:48.031Z,21.84
2017-02-19T12:39:47.755Z,21.91
2017-02-19T12:40:47.734Z,21.86
2017-02-19T12:41:47.398Z,21.86
2017-02-19T12:42:47.350Z,21.75
2017-02-19T12:44:02.278Z,21.86
2017-02-19T12:44:47.367Z,21.88
2017-02-19T12:45:47.424Z,21.88
2017-02-19T12:46:47.783Z,21.75
2017-02-19T12:47:47.788Z,21.86
2017-02-19T12:48:47.789Z,21.9
2017-02-19T12:49:47.895Z,21.86
2017-02-19T12:50:47.415Z,21.88
2017-02-19T12:51:47.797Z,21.84
2017-02-19T12:52:47.809Z,21.83
2017-02-19T12:53:47.527Z,21.88
2017-02-19T12:54:47.862Z,21.83
2017-02-19T12:55:48.841Z,21.79